createdAt,value
2017-12-03T00:01:57.829Z,52.67
2017-12-03T00:04:25.760Z,57.33
2017-12-03T00:06:53.598Z,60.50
2017-12-03T00:09:21.436Z,53.23
2017-12-03T00:11:49.342Z,58.27
2017-12-03T00:14:17.217Z,53.40
2017-12-03T00:16:45.205Z,57.70
2017-12-03T00:19:13.154Z,62.87
2017-12-03T00:21:41.067Z,54.13
2017-12-03T00:24:08.931Z,65.23
2017-12-03T00:26:36.888Z,60.93
2017-12-03T00:29:04.747Z,65.23
2017-12-03T00:31:32.625Z,70.77
2017-12-03T00:34:00.493Z,70.10
2017-12-03T00:36:28.363Z,70.63
2017-12-03T00:38:56.269Z,61.43
2017-12-03T00:41:24.215Z,60.63
2017-12-03T00:43:52.059Z,67.63
2017-12-03T00:46:19.908Z,61.00
2017-12-03T00:48:47.806Z,64.00
2017-12-03T00:51:15.688Z,71.60
2017-12-03T00:53:45.040Z,62.87
2017-12-03T00:56:13.015Z,64.07
2017-12-03T00:58:40.904Z,62.37
2017-12-03T01:01:08.833Z,68.13
2017-12-03T01:03:36.758Z,60.17
2017-12-03T01:06:04.613Z,58.70
2017-12-03T01:08:32.471Z,102.87
2017-12-03T01:11:00.344Z,63.30
2017-12-03T01:13:28.221Z,83.37
2017-12-03T01:15:56.081Z,89.03
2017-12-03T01:18:24.047Z,69.63
2017-12-03T01:20:51.916Z,69.37
2017-12-03T01:23:19.802Z,70.83
2017-12-03T01:25:47.719Z,71.77
2017-12-03T01:28:15.615Z,104.50
2017-12-03T01:30:43.508Z,96.40
2017-12-03T01:33:11.406Z,121.83
2017-12-03T01:35:39.314Z,113.90
2017-12-03T01:38:06.158Z,278.27
2017-12-03T01:40:32.344Z,87.00
2017-12-03T01:43:00.212Z,101.00
2017-12-03T01:45:28.121Z,82.67
2017-12-03T01:47:56.013Z,80.63
2017-12-03T01:50:22.143Z,76.23
2017-12-03T01:52:49.030Z,76.17
2017-12-03T01:55:15.173Z,77.13
2017-12-03T01:57:41.280Z,83.13
2017-12-03T02:00:07.397Z,75.90
2017-12-03T02:02:33.556Z,91.63
2017-12-03T02:05:00.390Z,75.10
2017-12-03T02:07:26.498Z,72.03
2017-12-03T02:09:52.639Z,69.90
2017-12-03T02:12:18.768Z,87.07
2017-12-03T02:14:44.850Z,87.03
2017-12-03T02:17:11.085Z,86.93
2017-12-03T02:19:37.270Z,86.27
2017-12-03T02:22:03.402Z,90.07
2017-12-03T02:24:31.274Z,89.20
2017-12-03T02:26:59.158Z,85.30
2017-12-03T02:29:27.047Z,84.00
2017-12-03T02:31:54.932Z,87.50
2017-12-03T02:34:22.809Z,92.07
2017-12-03T02:36:50.661Z,93.57
2017-12-03T02:39:18.559Z,93.63
2017-12-03T02:41:46.434Z,95.13
2017-12-03T02:44:14.317Z,95.20
2017-12-03T02:46:42.230Z,98.97
2017-12-03T02:49:10.109Z,94.63
2017-12-03T02:51:38.025Z,93.77
2017-12-03T02:54:06.000Z,103.47
2017-12-03T02:56:34.542Z,102.13
2017-12-03T02:59:02.427Z,84.83
2017-12-03T03:01:28.533Z,90.87
2017-12-03T03:03:54.654Z,92.63
2017-12-03T03:06:21.504Z,98.47
2017-12-03T03:11:51.169Z,116.10
2017-12-03T03:14:17.300Z,99.03
2017-12-03T03:16:45.184Z,109.70
2017-12-03T03:19:13.070Z,97.47
2017-12-03T03:21:41.000Z,97.53
2017-12-03T03:24:08.869Z,100.50
2017-12-03T03:26:36.817Z,110.57
2017-12-03T03:29:04.049Z,120.27
2017-12-03T03:31:30.202Z,96.23
2017-12-03T03:33:56.401Z,125.23
2017-12-03T03:36:22.597Z,118.43
2017-12-03T03:38:48.690Z,93.07
2017-12-03T03:41:14.842Z,98.17
2017-12-03T03:43:40.974Z,108.40
2017-12-03T03:46:07.124Z,96.30
2017-12-03T03:48:33.264Z,94.47
2017-12-03T03:50:59.400Z,101.23
2017-12-03T03:53:25.626Z,103.47
2017-12-03T03:55:51.779Z,73.97
2017-12-03T03:58:17.925Z,94.83
2017-12-03T04:00:44.046Z,79.70
2017-12-03T04:03:10.219Z,71.57
2017-12-03T04:05:36.341Z,103.67
2017-12-03T04:08:02.460Z,79.07
2017-12-03T04:10:28.662Z,84.07
2017-12-03T04:12:54.751Z,75.33
2017-12-03T04:15:20.900Z,58.33
2017-12-03T04:17:47.057Z,81.40
2017-12-03T04:20:13.249Z,69.83
2017-12-03T04:22:39.412Z,59.37
2017-12-03T04:25:05.546Z,54.23
2017-12-03T04:27:31.689Z,58.63
2017-12-03T04:29:57.894Z,54.20
2017-12-03T04:32:24.117Z,59.23
2017-12-03T04:34:50.250Z,63.40
2017-12-03T04:37:16.398Z,66.50
2017-12-03T04:39:43.315Z,78.40
2017-12-03T04:42:09.429Z,74.33
2017-12-03T04:44:35.592Z,74.30
2017-12-03T04:47:01.827Z,66.87
2017-12-03T04:49:28.052Z,78.27
2017-12-03T04:51:54.168Z,81.47
2017-12-03T04:54:20.297Z,77.77
2017-12-03T04:56:47.205Z,84.07
2017-12-03T04:59:13.336Z,94.83
2017-12-03T05:01:39.464Z,86.67
2017-12-03T05:04:05.563Z,85.23
2017-12-03T05:06:32.436Z,89.23
2017-12-03T05:08:58.622Z,89.80
2017-12-03T05:11:24.864Z,83.33
2017-12-03T05:13:51.241Z,90.33
2017-12-03T05:16:18.129Z,77.07
2017-12-03T05:18:44.241Z,82.27
2017-12-03T05:21:11.064Z,84.93
2017-12-03T05:23:38.969Z,75.10
2017-12-03T05:26:06.815Z,69.20
2017-12-03T05:28:34.677Z,81.23
2017-12-03T05:31:00.862Z,69.27
2017-12-03T05:33:27.010Z,67.30
2017-12-03T05:35:53.272Z,65.77
2017-12-03T05:38:19.418Z,77.53
2017-12-03T05:40:45.524Z,71.77
2017-12-03T05:43:12.743Z,68.17
2017-12-03T05:45:38.884Z,66.63
2017-12-03T05:48:05.010Z,66.97
2017-12-03T05:50:31.120Z,61.60
2017-12-03T05:52:57.281Z,64.70
2017-12-03T05:55:23.405Z,69.83
2017-12-03T05:57:49.513Z,63.60
2017-12-03T06:00:16.396Z,67.10
2017-12-03T06:02:42.600Z,63.10
2017-12-03T06:05:09.562Z,70.83
2017-12-03T06:07:37.174Z,59.80
2017-12-03T06:10:03.273Z,71.23
2017-12-03T06:12:30.117Z,69.70
2017-12-03T06:14:56.253Z,66.10
2017-12-03T06:17:22.346Z,60.87
2017-12-03T06:19:48.453Z,59.23
2017-12-03T06:22:14.669Z,67.27
2017-12-03T06:24:40.824Z,68.53
2017-12-03T06:27:06.953Z,68.23
2017-12-03T06:29:33.092Z,63.40
2017-12-03T06:31:59.237Z,60.47
2017-12-03T06:34:26.092Z,67.07
2017-12-03T06:36:57.095Z,71.03
2017-12-03T06:39:23.195Z,71.90
2017-12-03T06:41:50.045Z,66.60
2017-12-03T06:44:17.085Z,74.27
2017-12-03T06:46:43.180Z,75.50
2017-12-03T06:49:09.314Z,74.57
2017-12-03T06:51:35.487Z,70.63
2017-12-03T06:54:01.601Z,61.37
2017-12-03T06:56:27.704Z,64.63
2017-12-03T06:58:53.887Z,64.03
2017-12-03T07:01:20.025Z,62.17
2017-12-03T07:03:46.123Z,57.80
2017-12-03T07:06:12.245Z,62.70
2017-12-03T07:08:38.342Z,62.03
2017-12-03T07:11:04.424Z,60.97
2017-12-03T07:13:31.321Z,59.57
2017-12-03T07:15:57.499Z,60.30
2017-12-03T07:18:23.613Z,59.20
2017-12-03T07:20:49.756Z,67.07
2017-12-03T07:23:15.851Z,66.67
2017-12-03T07:25:42.027Z,68.53
2017-12-03T07:28:08.202Z,59.37
2017-12-03T07:30:35.048Z,60.03
2017-12-03T07:33:01.151Z,60.40
2017-12-03T07:35:27.351Z,66.53
2017-12-03T07:37:53.441Z,67.80
2017-12-03T07:40:19.569Z,69.77
2017-12-03T07:42:46.830Z,60.17
2017-12-03T07:45:13.770Z,61.97
2017-12-03T07:47:39.947Z,61.03
2017-12-03T07:50:06.089Z,58.80
2017-12-03T07:52:32.210Z,59.30
2017-12-03T07:54:58.319Z,63.90
2017-12-03T07:57:24.464Z,60.03
2017-12-03T07:59:50.562Z,56.87
2017-12-03T08:02:17.446Z,53.27
2017-12-03T08:04:43.612Z,47.33
2017-12-03T08:07:09.704Z,50.37
2017-12-03T08:09:36.541Z,52.53
2017-12-03T08:12:02.772Z,50.90
2017-12-03T08:14:28.890Z,51.13
2017-12-03T08:16:54.996Z,39.10
2017-12-03T08:19:21.113Z,48.23
2017-12-03T08:21:47.969Z,51.40
2017-12-03T08:24:14.077Z,44.50
2017-12-03T08:26:40.305Z,41.10
2017-12-03T08:29:06.534Z,50.07
2017-12-03T08:31:32.661Z,43.03
2017-12-03T08:33:58.793Z,45.43
2017-12-03T08:36:24.875Z,43.13
2017-12-03T08:38:50.956Z,45.13
2017-12-03T08:41:17.077Z,31.23
2017-12-03T08:43:43.242Z,45.77
2017-12-03T08:46:09.357Z,39.40
2017-12-03T08:48:35.508Z,37.97
2017-12-03T08:51:01.625Z,37.83
2017-12-03T08:53:28.511Z,42.13
2017-12-03T08:55:54.684Z,39.47
2017-12-03T08:58:20.805Z,41.43
2017-12-03T09:00:46.879Z,40.13
2017-12-03T09:03:13.067Z,41.23
2017-12-03T09:05:39.954Z,36.60
2017-12-03T09:08:06.095Z,32.97
2017-12-03T09:10:32.181Z,36.00
2017-12-03T09:12:58.301Z,37.87
2017-12-03T09:15:25.150Z,41.70
2017-12-03T09:17:52.004Z,35.13
2017-12-03T09:20:18.828Z,40.83
2017-12-03T09:22:44.935Z,32.43
2017-12-03T09:25:11.078Z,32.93
2017-12-03T09:27:37.200Z,34.57
2017-12-03T09:30:04.442Z,30.80
2017-12-03T09:32:31.309Z,32.80
2017-12-03T09:34:58.186Z,27.93
2017-12-03T09:37:24.284Z,31.30
2017-12-03T09:39:51.154Z,29.67
2017-12-03T09:42:17.246Z,34.47
2017-12-03T09:44:43.382Z,31.80
2017-12-03T09:47:09.504Z,27.80
2017-12-03T09:49:35.599Z,38.70
2017-12-03T09:52:01.758Z,33.20
2017-12-03T09:54:27.917Z,28.00
2017-12-03T09:56:54.077Z,33.20
2017-12-03T09:59:20.186Z,28.60
2017-12-03T10:01:46.337Z,33.47
2017-12-03T10:04:12.433Z,34.43
2017-12-03T10:06:39.274Z,31.60
2017-12-03T10:09:06.160Z,29.70
2017-12-03T10:11:32.233Z,32.83
2017-12-03T10:13:58.400Z,27.27
2017-12-03T10:16:24.949Z,26.53
2017-12-03T10:18:51.797Z,29.93
2017-12-03T10:21:17.986Z,29.43
2017-12-03T10:23:44.117Z,27.90
2017-12-03T10:26:10.294Z,26.07
2017-12-03T10:28:37.236Z,30.90
2017-12-03T10:31:03.359Z,26.23
2017-12-03T10:33:29.460Z,21.53
2017-12-03T10:35:56.353Z,30.13
2017-12-03T10:38:22.475Z,26.87
2017-12-03T10:40:48.605Z,27.00
2017-12-03T10:43:14.720Z,21.37
2017-12-03T10:45:40.861Z,26.73
2017-12-03T10:48:06.945Z,28.23
2017-12-03T10:50:33.038Z,27.57
2017-12-03T10:52:59.197Z,27.07
2017-12-03T10:55:25.304Z,24.70
2017-12-03T10:57:51.399Z,31.47
2017-12-03T11:00:19.409Z,20.00
2017-12-03T11:02:47.373Z,23.20
2017-12-03T11:05:13.457Z,23.10
2017-12-03T11:07:39.576Z,26.47
2017-12-03T11:10:05.665Z,21.87
2017-12-03T11:12:31.797Z,23.17
2017-12-03T11:14:57.939Z,25.47
2017-12-03T11:17:24.176Z,25.07
2017-12-03T11:19:50.636Z,29.47
2017-12-03T11:22:16.791Z,27.73
2017-12-03T11:24:42.909Z,25.57
2017-12-03T11:27:08.996Z,21.40
2017-12-03T11:29:35.146Z,23.30
2017-12-03T11:32:01.350Z,22.83
2017-12-03T11:34:27.464Z,25.00
2017-12-03T11:36:53.575Z,26.77
2017-12-03T11:39:20.416Z,26.20
2017-12-03T11:41:46.478Z,25.47
2017-12-03T11:44:12.600Z,25.17
2017-12-03T11:46:39.425Z,23.10
2017-12-03T12:32:45.156Z,22.97
2017-12-03T12:35:11.328Z,23.60
2017-12-03T12:37:37.429Z,28.40
2017-12-03T12:40:04.723Z,16.57
2017-12-03T12:42:33.914Z,21.33
2017-12-03T12:45:00.854Z,23.90
2017-12-03T12:47:27.645Z,22.33
2017-12-03T12:49:57.668Z,25.30
2017-12-03T12:52:23.816Z,20.97
2017-12-03T12:54:49.934Z,18.93
2017-12-03T12:57:16.032Z,21.77
2017-12-03T12:59:42.180Z,20.13
2017-12-03T13:02:09.104Z,21.83
2017-12-03T13:04:39.798Z,24.27
2017-12-03T13:07:12.965Z,22.20
2017-12-03T13:09:39.774Z,19.93
2017-12-03T13:12:05.877Z,23.07
2017-12-03T13:14:32.751Z,19.27
2017-12-03T13:16:58.911Z,21.50
2017-12-03T13:19:25.808Z,20.37
2017-12-03T13:21:51.949Z,19.80
2017-12-03T13:24:18.032Z,25.93
2017-12-03T13:26:44.135Z,23.57
2017-12-03T13:29:11.010Z,26.40
2017-12-03T13:31:37.104Z,25.77
2017-12-03T13:34:03.238Z,21.83
2017-12-03T13:36:29.368Z,22.90
2017-12-03T13:38:55.516Z,22.10
2017-12-03T13:41:21.711Z,24.37
2017-12-03T13:43:47.840Z,23.70
2017-12-03T13:46:13.941Z,26.80
2017-12-03T13:48:40.784Z,22.73
2017-12-03T13:51:06.931Z,25.33
2017-12-03T13:53:33.118Z,27.10
2017-12-03T13:55:59.291Z,26.10
2017-12-03T13:58:25.434Z,21.63
2017-12-03T14:00:51.568Z,24.20
2017-12-03T14:03:17.664Z,23.17
2017-12-03T14:05:43.812Z,21.83
2017-12-03T14:08:09.946Z,27.40
2017-12-03T14:10:36.081Z,22.80
2017-12-03T14:13:02.224Z,22.00
2017-12-03T14:15:28.382Z,20.37
2017-12-03T14:17:54.520Z,26.33
2017-12-03T14:20:20.751Z,22.50
2017-12-03T14:22:46.970Z,26.13
2017-12-03T14:25:13.183Z,23.30
2017-12-03T14:27:40.179Z,24.73
2017-12-03T14:30:06.352Z,18.60
2017-12-03T14:32:32.807Z,23.67
2017-12-03T14:34:59.163Z,25.97
2017-12-03T14:37:25.384Z,20.20
2017-12-03T14:39:51.583Z,25.33
2017-12-03T14:42:17.742Z,23.07
2017-12-03T14:44:43.920Z,24.90
2017-12-03T14:47:10.185Z,25.90
2017-12-03T14:49:36.414Z,27.57
2017-12-03T14:54:33.556Z,25.90
2017-12-03T14:56:59.742Z,27.90
2017-12-03T14:59:25.836Z,29.20
2017-12-03T15:01:51.939Z,26.77
2017-12-03T15:04:18.058Z,24.70
2017-12-03T15:06:44.192Z,29.60
2017-12-03T15:09:10.288Z,26.40
2017-12-03T15:11:36.406Z,22.70
2017-12-03T15:14:02.534Z,28.00
2017-12-03T15:16:28.760Z,28.37
2017-12-03T15:18:54.897Z,27.10
2017-12-03T15:21:20.984Z,27.37
2017-12-03T15:23:47.069Z,25.70
2017-12-03T15:26:13.999Z,28.27
2017-12-03T15:28:40.113Z,24.90
2017-12-03T15:31:06.238Z,27.87
2017-12-03T15:33:32.430Z,28.50
2017-12-03T15:35:58.592Z,33.63
2017-12-03T15:38:24.683Z,29.20
2017-12-03T15:40:50.834Z,42.37
2017-12-03T15:43:16.957Z,34.50
2017-12-03T15:45:43.073Z,28.10
2017-12-03T15:48:09.232Z,31.90
2017-12-03T15:50:35.324Z,31.43
2017-12-03T15:53:01.479Z,26.33
2017-12-03T15:55:27.763Z,25.57
2017-12-03T15:57:53.903Z,28.90
2017-12-03T16:00:19.984Z,32.67
2017-12-03T16:02:46.107Z,26.87
2017-12-03T16:05:12.949Z,25.40
2017-12-03T16:07:39.083Z,29.90
2017-12-03T16:10:05.201Z,32.00
2017-12-03T16:12:31.505Z,30.30
2017-12-03T16:14:57.643Z,28.13
2017-12-03T16:17:23.785Z,26.20
2017-12-03T16:19:49.910Z,28.13
2017-12-03T16:22:15.998Z,28.90
2017-12-03T16:24:42.178Z,25.37
2017-12-03T16:27:08.263Z,27.40
2017-12-03T16:29:34.353Z,29.90
2017-12-03T16:32:01.363Z,31.33
2017-12-03T16:34:27.649Z,28.70
2017-12-03T16:36:53.819Z,29.43
2017-12-03T16:39:19.979Z,29.40
2017-12-03T16:41:46.085Z,27.37
2017-12-03T16:44:12.181Z,27.60
2017-12-03T16:46:38.296Z,27.03
2017-12-03T16:49:04.504Z,31.10
2017-12-03T16:51:30.989Z,31.77
2017-12-03T16:53:57.181Z,37.60
2017-12-03T16:56:23.330Z,29.93
2017-12-03T16:58:49.484Z,28.40
2017-12-03T17:01:15.597Z,28.27
2017-12-03T17:03:41.687Z,30.53
2017-12-03T17:06:07.797Z,26.03
2017-12-03T17:08:33.940Z,26.30
2017-12-03T17:11:00.036Z,31.83
2017-12-03T17:13:27.452Z,30.87
2017-12-03T17:15:54.391Z,33.03
2017-12-03T17:18:20.492Z,33.37
2017-12-03T17:20:48.193Z,32.13
2017-12-03T17:23:14.328Z,33.87
2017-12-03T17:25:40.421Z,28.10
2017-12-03T17:28:06.514Z,28.47
2017-12-03T17:30:34.098Z,39.93
2017-12-03T17:33:00.222Z,40.73
2017-12-03T17:35:26.490Z,40.67
2017-12-03T17:37:58.494Z,49.23
2017-12-03T17:40:25.578Z,39.60
2017-12-03T17:42:54.149Z,41.17
2017-12-03T17:45:21.044Z,33.70
2017-12-03T17:47:47.138Z,43.77
2017-12-03T17:50:13.241Z,40.00
2017-12-03T17:52:39.432Z,41.67
2017-12-03T17:55:05.646Z,38.60
2017-12-03T17:57:34.364Z,35.20
2017-12-03T18:00:00.522Z,38.40
2017-12-03T18:02:30.809Z,43.87
2017-12-03T18:04:57.904Z,37.30
2017-12-03T18:07:23.983Z,42.73
2017-12-03T18:09:50.067Z,43.83
2017-12-03T18:12:16.166Z,43.50
2017-12-03T18:14:42.286Z,50.33
2017-12-03T18:17:08.368Z,43.10
2017-12-03T18:19:34.472Z,37.13
2017-12-03T18:22:00.594Z,38.23
2017-12-03T18:24:26.711Z,39.97
2017-12-03T18:26:53.540Z,40.60
2017-12-03T18:29:19.689Z,40.50
2017-12-03T18:31:46.601Z,40.33
2017-12-03T18:34:12.709Z,36.47
2017-12-03T18:36:38.864Z,44.27
2017-12-03T18:39:05.017Z,43.13
2017-12-03T18:41:31.184Z,37.93
2017-12-03T18:43:57.340Z,40.83
2017-12-03T18:46:24.202Z,44.20
2017-12-03T18:48:50.319Z,41.33
2017-12-03T18:51:16.464Z,45.67
2017-12-03T18:53:42.583Z,46.07
2017-12-03T18:56:08.719Z,45.27
2017-12-03T18:58:34.847Z,51.77
2017-12-03T19:01:00.952Z,45.83
2017-12-03T19:03:27.080Z,56.03
2017-12-03T19:05:53.234Z,46.93
2017-12-03T19:08:19.347Z,52.10
2017-12-03T19:10:46.190Z,51.00
2017-12-03T19:13:12.355Z,62.00
2017-12-03T19:15:39.172Z,51.93
2017-12-03T19:18:05.302Z,59.23
2017-12-03T19:20:31.458Z,58.03
2017-12-03T19:22:57.592Z,70.43
2017-12-03T19:25:23.713Z,55.80
2017-12-03T19:27:49.843Z,57.70
2017-12-03T19:30:15.957Z,56.53
2017-12-03T19:32:42.072Z,60.97
2017-12-03T19:35:08.925Z,60.50
2017-12-03T19:37:35.766Z,60.33
2017-12-03T19:40:01.929Z,61.83
2017-12-03T19:42:28.143Z,70.83
2017-12-03T19:44:54.247Z,63.63
2017-12-03T19:47:20.375Z,73.90
2017-12-03T19:49:46.581Z,64.90
2017-12-03T19:52:12.738Z,66.80
2017-12-03T19:54:38.822Z,71.43
2017-12-03T19:57:04.946Z,58.77
2017-12-03T19:59:31.111Z,68.50
2017-12-03T20:01:57.236Z,76.77
2017-12-03T20:04:23.380Z,64.23
2017-12-03T20:06:49.472Z,72.90
2017-12-03T20:09:15.586Z,68.57
2017-12-03T20:11:41.709Z,66.13
2017-12-03T20:14:07.829Z,69.43
2017-12-03T20:16:33.950Z,75.20
2017-12-03T20:19:00.117Z,77.03
2017-12-03T20:21:26.250Z,110.43
2017-12-03T20:23:52.365Z,89.40
2017-12-03T20:26:18.491Z,78.33
2017-12-03T20:28:44.645Z,75.47
2017-12-03T20:31:10.822Z,75.07
2017-12-03T20:33:37.956Z,69.43
2017-12-03T20:36:04.064Z,76.07
2017-12-03T20:38:30.218Z,71.90
2017-12-03T20:40:56.446Z,74.03
2017-12-03T20:43:22.563Z,72.30
2017-12-03T20:45:48.674Z,67.93
2017-12-03T20:48:15.549Z,54.60
2017-12-03T20:50:41.665Z,66.73
2017-12-03T20:53:07.770Z,59.50
2017-12-03T20:55:33.949Z,58.10
2017-12-03T20:58:00.873Z,57.73
2017-12-03T21:00:26.995Z,59.50
2017-12-03T21:02:53.157Z,62.33
2017-12-03T21:05:19.248Z,62.73
2017-12-03T21:07:45.360Z,63.40
2017-12-03T21:10:12.212Z,74.33
2017-12-03T21:12:39.046Z,59.47
2017-12-03T21:15:05.134Z,62.20
2017-12-03T21:17:31.269Z,71.43
2017-12-03T21:19:57.429Z,68.60
2017-12-03T21:22:23.554Z,74.63
2017-12-03T21:24:49.714Z,71.43
2017-12-03T21:27:15.821Z,70.27
2017-12-03T21:29:41.948Z,71.60
2017-12-03T21:32:08.212Z,66.17
2017-12-03T21:34:34.343Z,70.40
2017-12-03T21:37:00.509Z,71.03
2017-12-03T21:39:26.691Z,79.97
2017-12-03T21:41:52.871Z,81.23
2017-12-03T21:44:19.260Z,89.40
2017-12-03T21:46:45.450Z,75.27
2017-12-03T21:49:11.673Z,81.80
2017-12-03T21:51:38.538Z,80.07
2017-12-03T21:54:04.693Z,80.80
2017-12-03T21:56:30.808Z,74.87
2017-12-03T21:58:56.994Z,71.90
2017-12-03T22:01:24.009Z,86.13
2017-12-03T22:03:50.187Z,87.53
2017-12-03T22:06:16.300Z,75.70
2017-12-03T22:08:42.494Z,84.10
2017-12-03T22:11:08.704Z,70.40
2017-12-03T22:13:34.893Z,76.30
2017-12-03T22:16:01.011Z,78.43
2017-12-03T22:18:27.135Z,68.20
2017-12-03T22:20:53.224Z,78.83
2017-12-03T22:23:19.364Z,81.33
2017-12-03T22:25:45.474Z,63.10
2017-12-03T22:28:11.601Z,67.37
2017-12-03T22:30:37.862Z,56.87
2017-12-03T22:33:04.243Z,56.67
2017-12-03T22:35:30.400Z,59.03
2017-12-03T22:37:57.324Z,56.97
2017-12-03T22:40:23.447Z,57.13
2017-12-03T22:42:49.805Z,62.53
2017-12-03T22:45:15.994Z,60.03
2017-12-03T22:47:42.486Z,55.17
2017-12-03T22:50:10.004Z,53.60
2017-12-03T22:52:36.201Z,52.50
2017-12-03T22:55:02.365Z,54.20
2017-12-03T22:57:28.518Z,47.33
2017-12-03T22:59:55.389Z,50.23
2017-12-03T23:02:21.491Z,54.53
2017-12-03T23:04:47.582Z,52.13
2017-12-03T23:07:13.712Z,60.70
2017-12-03T23:09:39.849Z,60.33
2017-12-03T23:12:05.952Z,51.30
2017-12-03T23:14:32.098Z,66.37
2017-12-03T23:16:58.219Z,55.87
2017-12-03T23:19:24.390Z,67.30
2017-12-03T23:21:50.519Z,51.43
2017-12-03T23:24:17.357Z,74.53
2017-12-03T23:26:43.552Z,63.57
2017-12-03T23:29:09.791Z,53.40
2017-12-03T23:31:36.085Z,55.23
2017-12-03T23:34:02.267Z,59.20
2017-12-03T23:36:28.453Z,56.40
2017-12-03T23:38:54.578Z,51.63
2017-12-03T23:41:21.393Z,56.60
2017-12-03T23:43:47.727Z,48.30
2017-12-03T23:46:13.888Z,50.60
2017-12-03T23:48:40.001Z,60.87
2017-12-03T23:51:06.135Z,55.10
2017-12-03T23:53:32.250Z,53.57
2017-12-03T23:55:59.116Z,54.93
2017-12-03T23:58:25.524Z,61.80
